Terminal Aerodrome Forecast
Issued by NWS Wichita, KS

Home | Current Version | Previous Version | Graphics & Text | Print | Product List | Glossary On
Versions: 1 2 3 4 5 6 7 8 9 10 11 12 13 14 15 16 17
000
FTUS43 KICT 180700 AAA
TAFICT
TAF AMD
KICT 180752Z 1808/1906 VRB03KT 4SM BR SKC
      TEMPO 1809/1813 2SM BR
     FM181400 17009KT P6SM SCT025
     FM181700 17015G22KT P6SM SCT035=

USA.gov is the U.S. government's official web portal to all federal, state and local government web resources and services.